Latest Coastal Weather Observations for Cairns

IDQ60701

Issued at 2:32 am EST Monday 20 May 2019 (issued every 10 minutes, with the page automatically refreshed every 10 minutes)

About coastal observations | Map of coastal stations | Coastal observations for QLD | Marine services | Other Formats
Station Details ID: 031011 Name: CAIRNS AERO Lat: -16.87 Lon: 145.75 Height: 2.22 m
Data from the previous 72 hours. | See also: Recent months at Cairns
Date/Time
EST
Wind Sea
Height
m
Swell Vis
km
Cloud Weather Temp
°C
Press
hPa
Rain since
9am
mm
Dir  Spd
kts
Gust
kts
Height
m
Period
s
Dir
20/02:00am SSE 13 17 - - - - 10 Partly cloudy - 22.1 1017.9 13.4
20/01:31am SSE 11 16 - - - - 10 Partly cloudy - 22.1 1018.2 13.0
20/01:30am SSE 12 16 - - - - 10 Partly cloudy - 22.1 1018.1 13.0
20/01:00am SSE 11 21 - - - - 10 Partly cloudy - 22.4 1018.6 13.0
20/12:48am SSE 11 19 - - - - 10 Partly cloudy - 22.4 1018.6 13.0
20/12:36am SSE 10 15 - - - - 5 Partly cloudy - 22.2 1018.6 13.0
20/12:30am SSE 10 15 - - - - 6 Partly cloudy - 22.1 1018.6 12.8
20/12:29am SSE 10 15 - - - - 6 Partly cloudy - 22.1 1018.6 12.6
20/12:00am SSE 9 13 - - - - 10 Cloudy Rain 22.1 1018.9 11.6
 
Date/Time
EST
Wind Sea
Height
m
Swell Vis
km
Cloud Weather Temp
°C
Press
hPa
Rain since
9am
mm
Dir  Spd
kts
Gust
kts
Height
m
Period
s
Dir
19/11:30pm SSE 10 17 - - - - 10 Partly cloudy - 22.0 1019.0 11.6
19/11:26pm SSE 12 17 - - - - 10 Partly cloudy - 22.1 1019.1 11.6
19/11:00pm SSE 11 15 - - - - 5 Partly cloudy - 22.0 1019.4 11.0
19/10:58pm SSE 11 15 - - - - 5 Partly cloudy - 22.0 1019.4 11.0
19/10:50pm SSE 12 16 - - - - 6 Partly cloudy - 22.0 1019.5 10.8
19/10:49pm SSE 12 16 - - - - 7 Partly cloudy - 22.0 1019.5 10.8
19/10:30pm SE 9 20 - - - - 8 Partly cloudy - 22.3 1019.2 10.2
19/10:17pm SE 10 17 - - - - 2 Partly cloudy - 22.1 1019.3 9.8
19/10:01pm SSE 12 18 - - - - 6 Partly cloudy - 22.3 1019.1 7.8
19/10:00pm SSE 12 18 - - - - 7 Partly cloudy - 22.4 1019.1 7.8
19/09:45pm SSE 9 14 - - - - 10 Partly cloudy - 22.3 1019.2 7.4
19/09:43pm SSE 9 14 - - - - 10 Partly cloudy - 22.2 1019.2 7.4
19/09:30pm SSE 7 10 - - - - 5 Partly cloudy - 22.0 1019.3 7.4
19/09:13pm SSE 12 19 - - - - 3 Partly cloudy - 22.1 1019.3 5.6
19/09:09pm SSE 10 17 - - - - 6 Partly cloudy - 22.2 1019.3 4.6
19/09:04pm S 10 18 - - - - 10 Partly cloudy - 22.3 1019.1 3.8
19/09:00pm S 10 18 - - - - 10 Cloudy Showers 22.3 1019.1 3.6
19/08:45pm SSE 9 15 - - - - 6 Partly cloudy - 22.1 1019.1 3.6
19/08:40pm SSE 9 14 - - - - 10 Partly cloudy - 22.1 1019.1 3.4
19/08:30pm SSE 10 14 - - - - 10 Partly cloudy - 22.2 1019.0 3.4
19/08:00pm SSE 11 15 - - - - 10 Partly cloudy - 22.4 1018.7 3.4
19/07:30pm SSE 11 18 - - - - 10 Partly cloudy - 22.5 1018.3 3.4
19/07:00pm S 10 16 - - - - 10 Partly cloudy - 22.4 1018.1 3.4
19/06:30pm SSE 12 17 - - - - 10 Partly cloudy - 22.4 1017.7 3.4
19/06:00pm SSE 10 16 - - - - 10 Cloudy Showers 22.4 1017.3 3.4
19/05:30pm SSE 11 19 - - - - 5 Partly cloudy - 22.5 1017.1 2.8
19/05:18pm SSE 10 15 - - - - 7 Partly cloudy - 22.6 1016.9 2.6
19/05:00pm SSE 9 10 - - - - 4 Partly cloudy - 22.6 1017.0 2.4
19/04:42pm SSE 13 17 - - - - 4 Partly cloudy - 23.1 1016.9 0.6
19/04:40pm SSE 13 17 - - - - 6 Cloudy - 23.2 1016.8 0.2
19/04:30pm SSE 10 17 - - - - 10 Partly cloudy - 24.1 1016.6 0.2
19/04:00pm S 10 16 - - - - 10 Partly cloudy - 24.3 1016.4 0.2
19/03:30pm SE 17 21 - - - - 10 Partly cloudy - 25.0 1016.0 0.2
19/03:00pm SE 17 21 - - - - 10 Cloudy Rain 24.7 1016.2 0.2
19/02:49pm SE 18 23 - - - - 10 Partly cloudy - 23.7 1016.2 0.2
19/02:46pm SE 18 23 - - - - 10 Partly cloudy - 23.6 1016.3 0.2
19/02:30pm SE 16 20 - - - - 4 Partly cloudy - 23.8 1016.3 0.2
19/02:27pm SE 17 24 - - - - 5 Partly cloudy - 23.9 1016.4 0.2
19/02:26pm SE 18 27 - - - - 6 Partly cloudy - 24.0 1016.4 0.2
19/02:17pm SSE 17 27 - - - - 10 Partly cloudy - 26.4 1016.2 0.2
19/02:00pm SE 18 24 - - - - 10 Partly cloudy - 26.9 1016.4 0.2
19/01:30pm SE 19 25 - - - - 10 Partly cloudy - 25.3 1016.7 0.2
19/01:10pm SE 20 26 - - - - 10 Partly cloudy - 24.3 1016.9 0.2
19/01:00pm SE 17 24 - - - - 10 Cloudy - 24.7 1017.0 0.2
19/12:47pm SSE 14 19 - - - - 10 Partly cloudy - 25.8 1017.1 0.2
19/12:42pm SE 15 25 - - - - 10 Partly cloudy - 26.0 1017.2 0.2
19/12:30pm SE 19 27 - - - - 10 Partly cloudy - 26.4 1017.1 0.2
19/12:00pm SE 19 24 - - - - 10 Cloudy Showers 24.8 1017.6 0.2
19/11:45am SE 20 27 - - - - 10 Partly cloudy - 25.2 1017.5 0.2
19/11:30am SE 19 26 - - - - 4 Partly cloudy - 24.0 1017.7 0.2
19/11:24am SE 20 30 - - - - 5 Partly cloudy - 23.9 1017.8 0.2
19/11:21am SE 21 30 - - - - 6 Partly cloudy - 24.1 1017.8 0.2
19/11:00am SE 22 28 - - - - 10 Partly cloudy - 26.1 1017.8 0.2
19/10:30am SE 21 31 - - - - 10 Partly cloudy - 25.7 1018.2 0.2
19/10:19am SE 21 32 - - - - 10 Partly cloudy - 25.9 1018.3 0.2
19/10:00am SE 19 26 - - - - 10 Partly cloudy - 25.5 1018.4 0.2
19/09:48am SE 18 26 - - - - 10 Partly cloudy - 24.9 1018.5 0.2
19/09:30am SE 17 22 - - - - 5 Partly cloudy - 23.6 1018.5 0.0
19/09:27am SSE 16 23 - - - - 6 Partly cloudy - 23.9 1018.5 0.0
19/09:00am SSE 12 19 - - - - 10 Cloudy - 24.8 1018.3 3.2
19/08:47am SSE 13 20 - - - - 10 Partly cloudy - 24.2 1018.3 3.2
19/08:30am SSE 13 19 - - - - 10 Partly cloudy - 23.9 1017.9 3.2
19/08:10am SSE 15 21 - - - - 10 Partly cloudy - 23.6 1017.9 3.2
19/08:00am SSE 14 23 - - - - 10 Partly cloudy - 23.2 1017.8 3.2
19/07:44am SSE 11 16 - - - - 10 Partly cloudy - 22.8 1017.8 3.2
19/07:30am SSE 14 20 - - - - 4 Partly cloudy - 22.5 1017.6 3.2
19/07:24am SSE 13 18 - - - - 5 Partly cloudy - 22.6 1017.7 3.2
19/07:05am SSE 9 14 - - - - 7 Partly cloudy - 22.5 1017.5 3.0
19/07:00am SSE 10 14 - - - - 8 Partly cloudy - 22.5 1017.5 3.0
19/06:40am SE 10 14 - - - - 6 Partly cloudy - 22.5 1017.5 3.0
19/06:30am SSE 7 10 - - - - 10 Partly cloudy - 22.6 1017.3 2.6
19/06:06am SSE 10 15 - - - - 10 Partly cloudy - 22.8 1017.2 2.6
19/06:00am SSE 11 14 - - - - 10 Cloudy Showers 22.7 1017.1 2.6
19/05:42am SE 11 15 - - - - 6 Partly cloudy - 22.5 1017.0 2.2
19/05:30am SSE 11 16 - - - - 10 Partly cloudy - 22.8 1016.9 2.2
19/05:00am SSE 12 19 - - - - 10 Partly cloudy - 22.6 1016.5 2.0
19/04:30am SSE 9 15 - - - - 9 Partly cloudy - 22.5 1016.5 2.0
19/04:00am SSE 12 19 - - - - 10 Partly cloudy - 22.5 1016.7 1.4
19/03:30am SSE 10 15 - - - - 10 Partly cloudy - 22.7 1016.6 1.4
19/03:13am SSE 11 17 - - - - 10 Partly cloudy - 22.6 1016.8 1.4
19/03:02am SSE 11 19 - - - - 6 Partly cloudy - 22.5 1016.7 1.2
19/03:00am SSE 11 17 - - - - 7 Cloudy Showers 22.4 1016.7 1.2
19/02:30am SSE 9 14 - - - - 10 Cloudy - 22.7 1017.1 1.0
19/02:00am SSE 10 15 - - - - 10 Partly cloudy - 22.5 1017.2 1.0
19/01:30am S 12 19 - - - - 10 Partly cloudy - 22.6 1017.3 0.6
19/01:00am SSE 13 19 - - - - 10 Partly cloudy - 22.6 1017.4 0.6
19/12:30am S 11 17 - - - - 10 Partly cloudy - 22.4 1017.6 0.6
19/12:04am SSE 12 21 - - - - 8 Partly cloudy - 22.0 1017.9 0.6
19/12:00am SSE 13 21 - - - - 8 Cloudy Rain 22.0 1018.1 0.6
 
Date/Time
EST
Wind Sea
Height
m
Swell Vis
km
Cloud Weather Temp
°C
Press
hPa
Rain since
9am
mm
Dir  Spd
kts
Gust
kts
Height
m
Period
s
Dir
18/11:51pm SSE 13 19 - - - - 6 Partly cloudy - 22.2 1018.3 0.6
18/11:30pm SSE 11 17 - - - - 10 Partly cloudy - 22.7 1018.6 0.4
18/11:00pm S 11 18 - - - - 10 Partly cloudy - 22.8 1018.7 0.4
18/10:30pm S 14 21 - - - - 10 Partly cloudy - 23.0 1018.6 0.4
18/10:00pm SSE 13 19 - - - - 10 Partly cloudy - 23.0 1018.6 0.4
18/09:30pm S 13 19 - - - - 10 Partly cloudy - 22.8 1018.6 0.4
18/09:00pm SSE 12 19 - - - - 10 Cloudy - 22.9 1018.7 0.4
18/08:30pm SSE 14 19 - - - - 10 Cloudy - 22.8 1018.5 0.4
18/08:00pm SSE 15 21 - - - - 10 Partly cloudy - 23.1 1018.1 0.4
18/07:30pm SSE 14 20 - - - - 10 Partly cloudy - 23.2 1017.7 0.4
18/07:00pm SSE 11 18 - - - - 10 Partly cloudy - 23.0 1017.5 0.4
18/06:30pm SSE 11 17 - - - - 10 Partly cloudy - 22.9 1017.3 0.4
18/06:00pm SSE 15 22 - - - - 10 Cloudy Rain 23.2 1017.0 0.4
18/05:30pm SSE 13 20 - - - - 10 Partly cloudy - 23.4 1016.7 0.4
18/05:00pm SSE 12 18 - - - - 10 Partly cloudy - 23.3 1016.3 0.4
18/04:30pm SSE 13 18 - - - - 8 Partly cloudy - 23.2 1016.3 0.4
18/04:10pm SE 17 22 - - - - 10 Partly cloudy - 23.3 1016.3 0.4
18/04:00pm SE 19 29 - - - - 6 Partly cloudy - 23.4 1016.1 0.4
18/03:53pm SE 19 29 - - - - 6 Partly cloudy - 23.5 1016.1 0.4
18/03:51pm SE 18 29 - - - - 8 Partly cloudy - 23.7 1016.0 0.4
18/03:30pm SE 18 21 - - - - 10 Partly cloudy - 26.1 1015.8 0.4
18/03:00pm SE 21 25 - - - - 10 Partly cloudy Showers 24.9 1015.8 0.4
18/02:30pm SE 20 26 - - - - 10 Partly cloudy - 27.0 1015.9 0.4
18/02:00pm SE 21 26 - - - - 10 Partly cloudy - 26.0 1016.3 0.4
18/01:30pm SE 21 28 - - - - 10 Partly cloudy - 26.3 1016.6 0.4
18/01:00pm SE 19 28 - - - - 10 Partly cloudy - 26.6 1016.8 0.4
18/12:30pm SE 21 26 - - - - 10 Partly cloudy - 27.0 1017.3 0.4
18/12:00pm SE 19 25 - - - - 10 Mostly cloudy Rain 26.6 1017.7 0.4
18/11:30am SE 20 25 - - - - 10 Partly cloudy - 25.3 1018.2 0.4
18/11:24am SE 19 25 - - - - 10 Partly cloudy - 25.1 1018.1 0.4
18/11:14am SE 22 28 - - - - 6 Partly cloudy - 24.3 1018.3 0.4
18/11:02am SE 19 26 - - - - 7 Partly cloudy - 25.9 1018.1 0.2
18/11:00am SE 20 26 - - - - 7 Partly cloudy - 25.5 1018.2 0.2
18/10:51am SE 19 27 - - - - 6 Partly cloudy - 25.4 1018.4 0.2
18/10:30am SE 20 26 - - - - 10 Partly cloudy - 25.8 1018.6 0.2
18/10:00am SSE 15 24 - - - - 10 Partly cloudy - 25.2 1019.0 0.0
18/09:30am SSE 13 18 - - - - 10 Partly cloudy - 25.3 1019.0 0.0
18/09:05am SSE 13 18 - - - - 10 Partly cloudy - 23.9 1018.9 0.0
18/09:01am SSE 12 17 - - - - 10 Partly cloudy - 23.7 1018.9 0.0
18/09:00am SSE 12 17 - - - - 10 Cloudy Showers 23.5 1018.9 5.2
18/08:47am SSE 9 16 - - - - 5 Partly cloudy - 23.0 1018.8 5.2
18/08:45am SE 8 12 - - - - 8 Partly cloudy - 23.1 1018.7 4.8
18/08:30am SE 8 11 - - - - 3 Partly cloudy - 22.6 1018.7 4.6
18/08:21am SSE 9 12 - - - - 5 Partly cloudy - 22.5 1018.6 4.0
18/08:15am SSE 9 12 - - - - 9 Partly cloudy - 22.5 1018.6 4.0
18/08:00am SSE 9 12 - - - - 4 Partly cloudy - 22.3 1018.5 3.8
18/07:58am SE 9 12 - - - - 4 Partly cloudy - 22.2 1018.5 3.8
18/07:56am SE 9 12 - - - - 5 Partly cloudy - 22.2 1018.4 3.4
18/07:50am SSE 9 12 - - - - 8 Partly cloudy - 22.1 1018.3 3.4
18/07:48am SSE 9 12 - - - - 10 Partly cloudy - 22.1 1018.3 3.4
18/07:30am SSE 9 12 - - - - 4 Partly cloudy - 22.0 1018.0 3.2
18/07:10am SSE 12 20 - - - - 4 Partly cloudy - 22.1 1017.8 2.8
18/07:06am SSE 11 20 - - - - 6 Partly cloudy - 22.2 1017.7 2.6
18/07:00am SSE 11 16 - - - - 10 Partly cloudy - 22.3 1017.5 2.0
18/06:30am S 12 21 - - - - 10 Partly cloudy - 22.3 1017.2 2.0
18/06:13am S 11 18 - - - - 10 Partly cloudy - 22.2 1017.0 2.0
18/06:00am SSE 12 19 - - - - 5 Cloudy Showers 22.2 1016.8 2.0
18/05:57am SSE 12 19 - - - - 5 Partly cloudy - 22.2 1016.9 2.0
18/05:55am SSE 11 18 - - - - 5 Partly cloudy - 22.2 1016.9 2.0
18/05:41am SSE 10 17 - - - - 10 Partly cloudy - 22.4 1016.6 1.8
18/05:34am SSE 14 21 - - - - 10 Partly cloudy - 22.1 1016.6 1.8
18/05:30am SSE 15 21 - - - - 10 Partly cloudy - 22.1 1016.6 1.8
18/05:16am SSE 13 19 - - - - 4 Partly cloudy - 22.2 1016.5 1.8
18/05:12am SSE 12 19 - - - - 6 Partly cloudy - 22.2 1016.5 1.8
18/05:06am SSE 12 18 - - - - 9 Partly cloudy - 22.2 1016.3 1.6
18/05:00am SSE 12 18 - - - - 7 Partly cloudy - 22.2 1016.4 1.6
18/04:41am SSE 14 20 - - - - 5 Partly cloudy - 22.1 1016.5 1.6
18/04:30am SSE 14 19 - - - - 3 Partly cloudy - 22.1 1016.3 1.4
18/04:29am SSE 14 19 - - - - 3 Partly cloudy - 22.1 1016.4 1.4
18/04:22am SSE 14 18 - - - - 9 Partly cloudy - 22.3 1016.4 1.2
18/04:06am SE 15 18 - - - - 5 Partly cloudy - 22.1 1016.4 1.2
18/04:00am SE 14 18 - - - - 5 Partly cloudy - 22.2 1016.4 1.2
18/03:51am SSE 13 17 - - - - 6 Partly cloudy - 22.3 1016.3 0.8
18/03:39am SSE 14 18 - - - - 10 Partly cloudy - 22.4 1016.2 0.8
18/03:34am SSE 13 18 - - - - 10 Partly cloudy - 22.3 1016.2 0.8
18/03:30am SSE 13 19 - - - - 7 Partly cloudy - 22.2 1016.2 0.8
18/03:14am SSE 14 20 - - - - 6 Partly cloudy - 22.4 1016.4 0.6
18/03:10am SSE 13 18 - - - - 10 Partly cloudy - 22.5 1016.4 0.6
18/03:00am SSE 14 18 - - - - 10 Cloudy Showers 22.4 1016.5 0.6
18/02:57am SSE 14 20 - - - - 10 Partly cloudy - 22.3 1016.4 0.6
18/02:35am SE 12 15 - - - - 6 Partly cloudy - 22.4 1016.4 0.6
18/02:30am SE 13 17 - - - - 10 Partly cloudy - 22.6 1016.4 0.6
18/02:00am SSE 14 18 - - - - 10 Partly cloudy - 22.9 1016.3 0.6
18/01:34am SSE 17 22 - - - - 10 Partly cloudy - 22.7 1016.6 0.6
18/01:30am SSE 17 22 - - - - 9 Partly cloudy - 22.7 1016.7 0.6
18/01:23am SSE 18 22 - - - - 6 Partly cloudy - 22.5 1016.7 0.4
18/01:00am SSE 17 23 - - - - 10 Partly cloudy - 23.5 1016.7 0.4
18/12:30am SSE 15 22 - - - - 10 Partly cloudy - 23.8 1017.0 0.4
18/12:00am SSE 14 18 - - - - 10 Cloudy - 23.7 1017.1 0.4
 
Date/Time
EST
Wind Sea
Height
m
Swell Vis
km
Cloud Weather Temp
°C
Press
hPa
Rain since
9am
mm
Dir  Spd
kts
Gust
kts
Height
m
Period
s
Dir
17/11:30pm SSE 15 20 - - - - 10 Partly cloudy - 23.5 1017.4 0.4
17/11:00pm SSE 14 20 - - - - 10 Partly cloudy - 23.3 1017.8 0.4
17/10:30pm SSE 15 20 - - - - 10 Partly cloudy - 23.3 1017.8 0.4
17/10:00pm SSE 13 21 - - - - 10 Partly cloudy - 23.3 1017.9 0.4
17/09:37pm SSE 15 21 - - - - 10 Partly cloudy - 23.4 1018.0 0.4
17/09:30pm SSE 14 20 - - - - 10 Partly cloudy - 23.5 1018.0 0.4
17/09:00pm SSE 12 17 - - - - 10 Cloudy - 23.5 1018.1 0.4
17/08:30pm SSE 13 17 - - - - 10 Partly cloudy - 23.4 1017.8 0.4
17/08:00pm SSE 11 17 - - - - 10 Partly cloudy - 23.4 1017.5 0.4
17/07:30pm SSE 12 19 - - - - 10 Partly cloudy - 23.4 1017.4 0.4
17/07:00pm SSE 11 14 - - - - 10 - - 23.3 1017.1 0.4
17/06:30pm SSE 9 15 - - - - 10 Partly cloudy - 23.4 1016.7 0.4
17/06:00pm SSE 10 15 - - - - 10 Mostly clear - 24.0 1016.3 0.4
17/05:30pm SE 16 20 - - - - 10 Partly cloudy - 24.6 1016.0 0.4
17/05:00pm SE 16 19 - - - - 10 Partly cloudy - 25.1 1015.8 0.4
17/04:30pm SE 17 21 - - - - 10 Partly cloudy - 25.5 1015.6 0.4
17/04:00pm SE 17 23 - - - - 10 Cloudy - 25.5 1015.4 0.4
17/03:30pm SE 17 21 - - - - 10 Partly cloudy - 25.3 1015.2 0.4
17/03:00pm SE 17 21 - - - - 10 Mostly cloudy - 26.5 1015.1 0.4
17/02:30pm SE 16 20 - - - - 10 Partly cloudy - 25.5 1015.3 0.4
17/02:00pm SE 15 18 - - - - 10 Partly cloudy - 25.0 1015.4 0.4
17/01:42pm SE 18 24 - - - - 6 Partly cloudy - 23.7 1015.9 0.4
17/01:30pm SE 16 19 - - - - 10 Partly cloudy - 25.4 1015.9 0.4
17/01:01pm SE 15 22 - - - - 10 Partly cloudy - 25.6 1016.2 0.4
17/01:00pm SE 14 22 - - - - 10 Partly cloudy - 25.1 1016.2 0.4
17/12:30pm SE 17 22 - - - - 6 Partly cloudy - 24.2 1016.6 0.4
17/12:00pm SSE 18 23 - - - - 10 Cloudy Recent precip. 24.9 1016.8 0.4
17/11:30am SE 15 19 - - - - 10 Partly cloudy - 24.7 1017.1 0.4
17/11:18am SE 15 20 - - - - 10 Partly cloudy - 24.0 1017.3 0.4
17/11:00am SE 18 24 - - - - 6 Partly cloudy - 23.6 1017.6 0.4
17/10:30am SSE 11 16 - - - - 10 Partly cloudy - 24.9 1017.8 0.4
17/10:23am SSE 13 20 - - - - 10 Partly cloudy - 24.3 1017.9 0.4
17/10:06am SSE 13 18 - - - - 10 Partly cloudy - 24.0 1018.0 0.4
17/10:04am SSE 12 18 - - - - 10 Partly cloudy - 23.9 1018.0 0.4
17/10:00am SSE 11 18 - - - - 10 Partly cloudy - 24.2 1018.0 0.4
17/09:43am SSE 10 15 - - - - 6 Partly cloudy - 23.7 1018.1 0.0
17/09:30am SSE 11 17 - - - - 10 Partly cloudy - 23.8 1017.9 0.0
17/09:00am SSE 13 19 - - - - 10 Cloudy Showers 23.0 1017.7 9.8
17/08:49am SSE 10 17 - - - - 10 Partly cloudy - 22.9 1017.5 9.8
17/08:48am SSE 10 15 - - - - 10 Partly cloudy - 23.0 1017.5 9.8
17/08:30am SE 11 16 - - - - 2 Partly cloudy - 22.7 1017.5 9.6
17/08:27am SSE 11 16 - - - - 3 Partly cloudy - 22.6 1017.6 9.4
17/08:23am SSE 10 16 - - - - 6 Partly cloudy - 22.6 1017.5 9.2
17/08:14am SSE 11 18 - - - - 10 Partly cloudy - 22.9 1017.2 9.0
17/08:04am SE 14 22 - - - - 10 Partly cloudy - 22.7 1017.2 9.0
17/08:00am SSE 13 18 - - - - 10 Partly cloudy - 22.8 1017.1 9.0
17/07:39am SSE 14 19 - - - - 10 Partly cloudy - 22.3 1016.9 9.0
17/07:30am SSE 14 19 - - - - 7 Partly cloudy - 22.2 1017.0 9.0
17/07:24am SSE 12 17 - - - - 5 Partly cloudy - 22.3 1016.9 9.0
17/07:09am SSE 12 18 - - - - - Partly cloudy - 22.3 1016.8 8.8
17/07:00am SSE 11 15 - - - - - Partly cloudy - 22.4 1016.7 8.4
17/06:51am SSE 11 16 - - - - - Partly cloudy - 22.4 1016.4 8.2
17/06:44am SSE 11 16 - - - - - Partly cloudy - 22.3 1016.4 8.2
17/06:30am SSE 11 15 - - - - 5 Partly cloudy - 22.2 1016.3 8.2
17/06:29am SSE 10 15 - - - - 6 Partly cloudy - 22.3 1016.3 8.2
17/06:20am SSE 9 14 - - - - 10 Partly cloudy - 22.3 1016.1 8.0
17/06:00am SSE 10 15 - - - - 4 Cloudy Showers 22.1 1016.0 8.0
17/05:56am SSE 10 14 - - - - 4 Partly cloudy - 22.1 1016.0 7.8
17/05:39am SSE 10 16 - - - - 6 Partly cloudy - 22.3 1015.9 7.0
17/05:30am SSE 11 16 - - - - 10 Partly cloudy - 22.4 1015.7 6.8
17/05:28am SSE 11 16 - - - - 10 Partly cloudy - 22.3 1015.7 6.8
17/05:27am SSE 11 16 - - - - 10 Partly cloudy - 22.3 1015.7 6.8
17/05:09am SE 10 15 - - - - 3 Partly cloudy - 22.1 1015.7 6.8
17/05:00am SSE 9 14 - - - - 6 Partly cloudy - 22.2 1015.5 6.0
17/04:37am S 10 16 - - - - 6 Partly cloudy - 22.2 1015.6 5.6
17/04:30am SSE 8 13 - - - - 10 Partly cloudy - 22.4 1015.6 5.6
17/04:14am SSE 13 19 - - - - 10 Partly cloudy - 22.2 1015.5 5.6
17/04:00am SSE 12 18 - - - - 4 Partly cloudy - 22.2 1015.5 5.6
17/03:54am SSE 10 14 - - - - 4 Partly cloudy - 22.3 1015.7 5.4
17/03:50am SSE 10 14 - - - - 6 Partly cloudy - 22.4 1015.6 5.4
17/03:43am SSE 11 16 - - - - 10 Partly cloudy - 22.4 1015.5 5.4
17/03:41am SSE 12 17 - - - - 10 Partly cloudy - 22.4 1015.5 5.4
17/03:31am SSE 11 19 - - - - 6 Partly cloudy - 22.5 1015.6 5.4
17/03:30am SSE 11 19 - - - - 7 Partly cloudy - 22.6 1015.6 5.4
17/03:23am S 9 13 - - - - 10 Partly cloudy - 22.4 1015.6 5.4
17/03:16am S 11 15 - - - - 10 Partly cloudy - 22.4 1015.6 5.4
17/03:05am SSE 11 17 - - - - 10 Partly cloudy - 22.6 1015.6 5.2
17/03:00am SSE 11 17 - - - - 9 Cloudy Showers 22.5 1015.6 5.2
17/02:58am SSE 11 17 - - - - 7 Partly cloudy - 22.6 1015.6 5.2
17/02:48am SSE 12 18 - - - - 6 Partly cloudy - 22.5 1015.7 5.2
17/02:43am SSE 11 18 - - - - 8 Partly cloudy - 22.6 1015.6 5.2
17/02:33am SSE 11 15 - - - - 5 Partly cloudy - 22.4 1015.7 5.2

Other formats

Comma delimited format used in spreadsheet applications
http://www.bom.gov.au/fwo/IDQ60701/IDQ60701.94287.axf

JavaScript Object Notation format (JSON) in row-major order
http://www.bom.gov.au/fwo/IDQ60701/IDQ60701.94287.json

Data quality

Most of these data are generated automatically and are frequently updated. Quality checks on data are not normally performed. It is possible for incorrect values to appear. Refer to information at About Latest Weather Observations and please check the disclaimer before using these data.